sensor_id;sensor_type;location;lat;lon;timestamp;P1;durP1;ratioP1;P2;durP2;ratioP2
65641;SDS011;52340;-6.720;108.544;2023-08-08T00:00:03;74.30;;;41.88;;
65641;SDS011;52340;-6.720;108.544;2023-08-08T00:01:05;70.45;;;41.30;;
65641;SDS011;52340;-6.720;108.544;2023-08-08T00:02:06;72.00;;;41.72;;
65641;SDS011;52340;-6.720;108.544;2023-08-08T00:03:08;71.28;;;39.97;;
65641;SDS011;52340;-6.720;108.544;2023-08-08T00:04:10;67.07;;;38.80;;
65641;SDS011;52340;-6.720;108.544;2023-08-08T00:05:12;71.50;;;39.33;;
65641;SDS011;52340;-6.720;108.544;2023-08-08T00:06:14;69.95;;;39.10;;
65641;SDS011;52340;-6.720;108.544;2023-08-08T00:07:15;66.25;;;38.38;;
65641;SDS011;52340;-6.720;108.544;2023-08-08T00:08:17;70.70;;;38.08;;
65641;SDS011;52340;-6.720;108.544;2023-08-08T00:09:20;70.45;;;38.97;;
65641;SDS011;52340;-6.720;108.544;2023-08-08T00:10:22;71.07;;;39.05;;
65641;SDS011;52340;-6.720;108.544;2023-08-08T00:11:24;68.72;;;39.05;;
65641;SDS011;52340;-6.720;108.544;2023-08-08T00:12:26;68.13;;;39.50;;
65641;SDS011;52340;-6.720;108.544;2023-08-08T00:13:27;62.25;;;37.88;;
65641;SDS011;52340;-6.720;108.544;2023-08-08T00:14:29;68.57;;;39.28;;
65641;SDS011;52340;-6.720;108.544;2023-08-08T00:15:31;63.15;;;36.70;;
65641;SDS011;52340;-6.720;108.544;2023-08-08T00:16:33;61.83;;;37.42;;
65641;SDS011;52340;-6.720;108.544;2023-08-08T00:17:34;65.13;;;37.08;;
65641;SDS011;52340;-6.720;108.544;2023-08-08T00:18:36;64.90;;;38.85;;
65641;SDS011;52340;-6.720;108.544;2023-08-08T00:19:38;68.28;;;38.00;;
65641;SDS011;52340;-6.720;108.544;2023-08-08T00:20:40;60.42;;;38.00;;
65641;SDS011;52340;-6.720;108.544;2023-08-08T00:21:41;58.75;;;36.42;;
65641;SDS011;52340;-6.720;108.544;2023-08-08T00:22:43;66.70;;;38.20;;
65641;SDS011;52340;-6.720;108.544;2023-08-08T00:23:45;57.35;;;37.10;;
65641;SDS011;52340;-6.720;108.544;2023-08-08T00:24:48;70.13;;;38.20;;
65641;SDS011;52340;-6.720;108.544;2023-08-08T00:25:50;64.38;;;38.97;;
65641;SDS011;52340;-6.720;108.544;2023-08-08T00:26:52;60.85;;;37.17;;
65641;SDS011;52340;-6.720;108.544;2023-08-08T00:27:54;57.65;;;34.50;;
65641;SDS011;52340;-6.720;108.544;2023-08-08T00:28:55;58.28;;;35.05;;
65641;SDS011;52340;-6.720;108.544;2023-08-08T00:29:57;51.65;;;33.03;;
65641;SDS011;52340;-6.720;108.544;2023-08-08T00:30:59;60.75;;;32.20;;
65641;SDS011;52340;-6.720;108.544;2023-08-08T00:32:00;53.42;;;33.13;;
65641;SDS011;52340;-6.720;108.544;2023-08-08T00:33:02;52.25;;;31.40;;
65641;SDS011;52340;-6.720;108.544;2023-08-08T00:34:04;54.50;;;29.95;;
65641;SDS011;52340;-6.720;108.544;2023-08-08T00:35:06;50.55;;;29.40;;
65641;SDS011;52340;-6.720;108.544;2023-08-08T00:36:09;55.17;;;29.30;;
65641;SDS011;52340;-6.720;108.544;2023-08-08T00:37:10;48.40;;;28.83;;
65641;SDS011;52340;-6.720;108.544;2023-08-08T00:38:12;45.53;;;27.73;;
65641;SDS011;52340;-6.720;108.544;2023-08-08T00:39:14;42.13;;;27.60;;
65641;SDS011;52340;-6.720;108.544;2023-08-08T00:40:18;42.65;;;26.98;;
65641;SDS011;52340;-6.720;108.544;2023-08-08T00:41:19;47.45;;;28.65;;
65641;SDS011;52340;-6.720;108.544;2023-08-08T00:42:21;42.22;;;27.30;;
65641;SDS011;52340;-6.720;108.544;2023-08-08T00:43:23;41.03;;;25.88;;
65641;SDS011;52340;-6.720;108.544;2023-08-08T00:44:25;46.03;;;26.17;;
65641;SDS011;52340;-6.720;108.544;2023-08-08T00:45:26;46.40;;;27.30;;
65641;SDS011;52340;-6.720;108.544;2023-08-08T00:46:28;44.17;;;25.45;;
65641;SDS011;52340;-6.720;108.544;2023-08-08T00:47:31;43.17;;;25.50;;
65641;SDS011;52340;-6.720;108.544;2023-08-08T00:48:33;44.10;;;25.58;;
65641;SDS011;52340;-6.720;108.544;2023-08-08T00:49:34;40.90;;;24.77;;
65641;SDS011;52340;-6.720;108.544;2023-08-08T00:50:36;38.63;;;25.33;;
65641;SDS011;52340;-6.720;108.544;2023-08-08T00:51:43;44.92;;;24.60;;
65641;SDS011;52340;-6.720;108.544;2023-08-08T00:52:45;36.15;;;23.33;;
65641;SDS011;52340;-6.720;108.544;2023-08-08T00:53:47;38.92;;;23.10;;
65641;SDS011;52340;-6.720;108.544;2023-08-08T00:54:49;39.95;;;23.83;;
65641;SDS011;52340;-6.720;108.544;2023-08-08T00:55:52;43.70;;;23.45;;
65641;SDS011;52340;-6.720;108.544;2023-08-08T00:56:54;36.20;;;23.38;;
65641;SDS011;52340;-6.720;108.544;2023-08-08T00:57:56;34.08;;;21.98;;
65641;SDS011;52340;-6.720;108.544;2023-08-08T00:58:59;32.90;;;21.92;;
65641;SDS011;52340;-6.720;108.544;2023-08-08T01:00:01;39.03;;;23.20;;
65641;SDS011;52340;-6.720;108.544;2023-08-08T01:01:03;36.08;;;22.50;;
65641;SDS011;52340;-6.720;108.544;2023-08-08T01:02:05;36.63;;;21.90;;
65641;SDS011;52340;-6.720;108.544;2023-08-08T01:03:07;36.78;;;21.23;;
65641;SDS011;52340;-6.720;108.544;2023-08-08T01:04:08;47.75;;;22.85;;
65641;SDS011;52340;-6.720;108.544;2023-08-08T01:05:10;51.95;;;23.58;;
65641;SDS011;52340;-6.720;108.544;2023-08-08T01:06:13;49.20;;;23.17;;
65641;SDS011;52340;-6.720;108.544;2023-08-08T01:07:20;43.30;;;21.88;;
65641;SDS011;52340;-6.720;108.544;2023-08-08T01:09:33;39.97;;;21.30;;
65641;SDS011;52340;-6.720;108.544;2023-08-08T01:10:38;39.70;;;20.70;;
65641;SDS011;52340;-6.720;108.544;2023-08-08T01:11:42;36.85;;;19.90;;
65641;SDS011;52340;-6.720;108.544;2023-08-08T01:12:45;38.75;;;20.17;;
65641;SDS011;52340;-6.720;108.544;2023-08-08T01:13:48;46.72;;;20.20;;
65641;SDS011;52340;-6.720;108.544;2023-08-08T01:14:50;38.40;;;19.25;;
65641;SDS011;52340;-6.720;108.544;2023-08-08T01:15:52;33.92;;;19.00;;
65641;SDS011;52340;-6.720;108.544;2023-08-08T01:16:55;33.30;;;18.83;;
65641;SDS011;52340;-6.720;108.544;2023-08-08T01:17:57;35.88;;;18.85;;
65641;SDS011;52340;-6.720;108.544;2023-08-08T01:19:01;30.35;;;19.15;;
65641;SDS011;52340;-6.720;108.544;2023-08-08T01:20:03;29.42;;;17.80;;
65641;SDS011;52340;-6.720;108.544;2023-08-08T01:21:06;33.03;;;19.13;;
65641;SDS011;52340;-6.720;108.544;2023-08-08T01:22:14;30.83;;;18.00;;
65641;SDS011;52340;-6.720;108.544;2023-08-08T01:23:23;31.45;;;17.40;;
65641;SDS011;52340;-6.720;108.544;2023-08-08T01:24:28;30.83;;;17.65;;
65641;SDS011;52340;-6.720;108.544;2023-08-08T01:25:30;27.70;;;17.38;;
65641;SDS011;52340;-6.720;108.544;2023-08-08T01:26:32;29.02;;;17.08;;
65641;SDS011;52340;-6.720;108.544;2023-08-08T01:27:34;25.65;;;17.63;;
65641;SDS011;52340;-6.720;108.544;2023-08-08T01:28:36;28.77;;;17.60;;
65641;SDS011;52340;-6.720;108.544;2023-08-08T01:29:42;34.30;;;17.75;;
65641;SDS011;52340;-6.720;108.544;2023-08-08T01:30:44;33.78;;;17.52;;
65641;SDS011;52340;-6.720;108.544;2023-08-08T01:31:46;33.75;;;17.88;;
65641;SDS011;52340;-6.720;108.544;2023-08-08T01:32:48;31.17;;;18.10;;
65641;SDS011;52340;-6.720;108.544;2023-08-08T01:33:50;34.22;;;17.60;;
65641;SDS011;52340;-6.720;108.544;2023-08-08T01:34:51;30.27;;;17.42;;
65641;SDS011;52340;-6.720;108.544;2023-08-08T01:35:54;34.95;;;18.45;;
65641;SDS011;52340;-6.720;108.544;2023-08-08T01:36:59;33.65;;;17.73;;
65641;SDS011;52340;-6.720;108.544;2023-08-08T01:38:08;30.15;;;18.15;;
65641;SDS011;52340;-6.720;108.544;2023-08-08T01:39:13;30.30;;;18.10;;
65641;SDS011;52340;-6.720;108.544;2023-08-08T01:40:19;29.75;;;17.58;;
65641;SDS011;52340;-6.720;108.544;2023-08-08T01:41:22;34.08;;;18.17;;
65641;SDS011;52340;-6.720;108.544;2023-08-08T01:42:24;28.67;;;18.08;;
65641;SDS011;52340;-6.720;108.544;2023-08-08T01:43:27;29.63;;;17.60;;
65641;SDS011;52340;-6.720;108.544;2023-08-08T01:44:29;29.58;;;18.13;;
65641;SDS011;52340;-6.720;108.544;2023-08-08T01:45:31;29.77;;;18.15;;
65641;SDS011;52340;-6.720;108.544;2023-08-08T01:46:33;29.42;;;18.15;;
65641;SDS011;52340;-6.720;108.544;2023-08-08T01:47:35;27.63;;;17.48;;
65641;SDS011;52340;-6.720;108.544;2023-08-08T01:48:37;28.00;;;18.27;;
65641;SDS011;52340;-6.720;108.544;2023-08-08T01:49:39;30.33;;;18.23;;
65641;SDS011;52340;-6.720;108.544;2023-08-08T01:50:40;27.15;;;18.42;;
65641;SDS011;52340;-6.720;108.544;2023-08-08T01:51:42;31.02;;;18.65;;
65641;SDS011;52340;-6.720;108.544;2023-08-08T01:52:44;27.27;;;17.95;;
65641;SDS011;52340;-6.720;108.544;2023-08-08T01:53:46;30.27;;;18.65;;
65641;SDS011;52340;-6.720;108.544;2023-08-08T01:54:47;29.85;;;18.23;;
65641;SDS011;52340;-6.720;108.544;2023-08-08T01:55:51;31.60;;;19.02;;
65641;SDS011;52340;-6.720;108.544;2023-08-08T01:56:53;29.75;;;18.60;;
65641;SDS011;52340;-6.720;108.544;2023-08-08T01:57:55;28.08;;;18.50;;
65641;SDS011;52340;-6.720;108.544;2023-08-08T01:58:56;30.45;;;19.15;;
65641;SDS011;52340;-6.720;108.544;2023-08-08T01:59:58;29.95;;;18.83;;
65641;SDS011;52340;-6.720;108.544;2023-08-08T02:01:00;28.75;;;17.77;;
65641;SDS011;52340;-6.720;108.544;2023-08-08T02:02:01;27.15;;;18.42;;
65641;SDS011;52340;-6.720;108.544;2023-08-08T02:03:03;26.88;;;18.08;;
65641;SDS011;52340;-6.720;108.544;2023-08-08T02:04:05;34.70;;;18.73;;
65641;SDS011;52340;-6.720;108.544;2023-08-08T02:05:07;29.23;;;17.88;;
65641;SDS011;52340;-6.720;108.544;2023-08-08T02:06:09;28.52;;;17.95;;
65641;SDS011;52340;-6.720;108.544;2023-08-08T02:07:10;28.52;;;18.67;;
65641;SDS011;52340;-6.720;108.544;2023-08-08T02:08:12;31.08;;;18.25;;
65641;SDS011;52340;-6.720;108.544;2023-08-08T02:09:14;25.58;;;18.23;;
65641;SDS011;52340;-6.720;108.544;2023-08-08T02:10:16;27.83;;;18.85;;
65641;SDS011;52340;-6.720;108.544;2023-08-08T02:11:20;29.00;;;18.80;;
65641;SDS011;52340;-6.720;108.544;2023-08-08T02:12:22;30.40;;;18.80;;
65641;SDS011;52340;-6.720;108.544;2023-08-08T02:13:24;30.80;;;18.10;;
65641;SDS011;52340;-6.720;108.544;2023-08-08T02:14:25;29.65;;;18.60;;
65641;SDS011;52340;-6.720;108.544;2023-08-08T02:15:27;36.15;;;19.15;;
65641;SDS011;52340;-6.720;108.544;2023-08-08T02:16:31;31.90;;;18.77;;
65641;SDS011;52340;-6.720;108.544;2023-08-08T02:17:35;34.63;;;19.05;;
65641;SDS011;52340;-6.720;108.544;2023-08-08T02:18:37;29.60;;;18.98;;
65641;SDS011;52340;-6.720;108.544;2023-08-08T02:19:39;31.35;;;18.95;;
65641;SDS011;52340;-6.720;108.544;2023-08-08T02:20:44;35.90;;;19.58;;
65641;SDS011;52340;-6.720;108.544;2023-08-08T02:21:45;38.70;;;19.65;;
65641;SDS011;52340;-6.720;108.544;2023-08-08T02:22:49;31.60;;;19.35;;
65641;SDS011;52340;-6.720;108.544;2023-08-08T02:23:53;30.90;;;19.42;;
65641;SDS011;52340;-6.720;108.544;2023-08-08T02:24:55;32.80;;;19.15;;
65641;SDS011;52340;-6.720;108.544;2023-08-08T02:25:57;31.85;;;20.25;;
65641;SDS011;52340;-6.720;108.544;2023-08-08T02:27:00;31.45;;;20.33;;
65641;SDS011;52340;-6.720;108.544;2023-08-08T02:28:02;29.52;;;20.35;;
65641;SDS011;52340;-6.720;108.544;2023-08-08T02:29:06;32.88;;;20.15;;
65641;SDS011;52340;-6.720;108.544;2023-08-08T02:30:08;33.17;;;21.55;;
65641;SDS011;52340;-6.720;108.544;2023-08-08T02:31:10;31.67;;;21.05;;
65641;SDS011;52340;-6.720;108.544;2023-08-08T02:32:14;31.50;;;20.00;;
65641;SDS011;52340;-6.720;108.544;2023-08-08T02:33:16;33.58;;;20.40;;
65641;SDS011;52340;-6.720;108.544;2023-08-08T02:34:18;30.10;;;19.55;;
65641;SDS011;52340;-6.720;108.544;2023-08-08T02:35:20;29.73;;;20.17;;
65641;SDS011;52340;-6.720;108.544;2023-08-08T02:36:21;32.63;;;19.13;;
65641;SDS011;52340;-6.720;108.544;2023-08-08T02:37:23;31.17;;;19.45;;
65641;SDS011;52340;-6.720;108.544;2023-08-08T02:38:25;34.33;;;18.88;;
65641;SDS011;52340;-6.720;108.544;2023-08-08T02:39:27;32.55;;;19.13;;
65641;SDS011;52340;-6.720;108.544;2023-08-08T02:40:28;33.83;;;19.58;;
65641;SDS011;52340;-6.720;108.544;2023-08-08T02:41:30;33.63;;;19.42;;
65641;SDS011;52340;-6.720;108.544;2023-08-08T02:42:34;32.47;;;19.13;;
65641;SDS011;52340;-6.720;108.544;2023-08-08T02:43:38;33.45;;;19.35;;
65641;SDS011;52340;-6.720;108.544;2023-08-08T02:44:40;28.95;;;18.90;;
65641;SDS011;52340;-6.720;108.544;2023-08-08T02:45:41;32.53;;;18.50;;
65641;SDS011;52340;-6.720;108.544;2023-08-08T02:46:43;34.28;;;19.52;;
65641;SDS011;52340;-6.720;108.544;2023-08-08T02:47:45;31.23;;;18.85;;
65641;SDS011;52340;-6.720;108.544;2023-08-08T02:48:46;33.22;;;18.42;;
65641;SDS011;52340;-6.720;108.544;2023-08-08T02:49:48;32.40;;;18.90;;
65641;SDS011;52340;-6.720;108.544;2023-08-08T02:50:50;27.40;;;18.25;;
65641;SDS011;52340;-6.720;108.544;2023-08-08T02:51:52;34.72;;;20.15;;
65641;SDS011;52340;-6.720;108.544;2023-08-08T02:52:53;29.63;;;19.42;;
65641;SDS011;52340;-6.720;108.544;2023-08-08T02:53:55;33.33;;;18.80;;
65641;SDS011;52340;-6.720;108.544;2023-08-08T02:54:57;29.70;;;19.38;;
65641;SDS011;52340;-6.720;108.544;2023-08-08T02:55:59;28.85;;;19.60;;
65641;SDS011;52340;-6.720;108.544;2023-08-08T02:57:00;29.00;;;19.38;;
65641;SDS011;52340;-6.720;108.544;2023-08-08T02:58:04;29.40;;;20.13;;
65641;SDS011;52340;-6.720;108.544;2023-08-08T02:59:06;29.52;;;20.23;;
65641;SDS011;52340;-6.720;108.544;2023-08-08T03:00:08;30.02;;;20.23;;
65641;SDS011;52340;-6.720;108.544;2023-08-08T03:01:10;32.88;;;19.77;;
65641;SDS011;52340;-6.720;108.544;2023-08-08T03:02:11;29.50;;;19.95;;
65641;SDS011;52340;-6.720;108.544;2023-08-08T03:03:13;28.40;;;19.50;;
65641;SDS011;52340;-6.720;108.544;2023-08-08T03:04:15;31.02;;;20.08;;
65641;SDS011;52340;-6.720;108.544;2023-08-08T03:05:17;31.05;;;20.45;;
65641;SDS011;52340;-6.720;108.544;2023-08-08T03:06:19;32.80;;;20.77;;
65641;SDS011;52340;-6.720;108.544;2023-08-08T03:07:20;29.02;;;20.25;;
65641;SDS011;52340;-6.720;108.544;2023-08-08T03:08:22;33.70;;;21.02;;
65641;SDS011;52340;-6.720;108.544;2023-08-08T03:09:26;31.45;;;21.55;;
65641;SDS011;52340;-6.720;108.544;2023-08-08T03:10:28;33.45;;;21.60;;
65641;SDS011;52340;-6.720;108.544;2023-08-08T03:11:30;35.00;;;21.05;;
65641;SDS011;52340;-6.720;108.544;2023-08-08T03:12:32;33.83;;;21.38;;
65641;SDS011;52340;-6.720;108.544;2023-08-08T03:13:35;31.23;;;21.15;;
65641;SDS011;52340;-6.720;108.544;2023-08-08T03:14:37;31.65;;;21.88;;
65641;SDS011;52340;-6.720;108.544;2023-08-08T03:15:39;35.38;;;21.15;;
65641;SDS011;52340;-6.720;108.544;2023-08-08T03:16:40;38.20;;;21.83;;
65641;SDS011;52340;-6.720;108.544;2023-08-08T03:17:42;30.13;;;20.83;;
65641;SDS011;52340;-6.720;108.544;2023-08-08T03:18:44;30.33;;;20.90;;
65641;SDS011;52340;-6.720;108.544;2023-08-08T03:19:46;31.48;;;21.05;;
65641;SDS011;52340;-6.720;108.544;2023-08-08T03:20:47;31.85;;;21.88;;
65641;SDS011;52340;-6.720;108.544;2023-08-08T03:21:49;30.83;;;21.02;;
65641;SDS011;52340;-6.720;108.544;2023-08-08T03:22:51;32.95;;;21.58;;
65641;SDS011;52340;-6.720;108.544;2023-08-08T03:23:56;34.92;;;22.65;;
65641;SDS011;52340;-6.720;108.544;2023-08-08T03:25:00;36.45;;;22.65;;
65641;SDS011;52340;-6.720;108.544;2023-08-08T03:26:02;35.80;;;22.08;;
65641;SDS011;52340;-6.720;108.544;2023-08-08T03:27:03;35.60;;;22.85;;
65641;SDS011;52340;-6.720;108.544;2023-08-08T03:28:06;30.60;;;21.88;;
65641;SDS011;52340;-6.720;108.544;2023-08-08T03:29:09;36.47;;;22.35;;
65641;SDS011;52340;-6.720;108.544;2023-08-08T03:30:11;35.22;;;22.00;;
65641;SDS011;52340;-6.720;108.544;2023-08-08T03:31:13;34.30;;;21.60;;
65641;SDS011;52340;-6.720;108.544;2023-08-08T03:32:15;32.08;;;21.65;;
65641;SDS011;52340;-6.720;108.544;2023-08-08T03:33:17;33.15;;;22.00;;
65641;SDS011;52340;-6.720;108.544;2023-08-08T03:34:18;33.58;;;21.42;;
65641;SDS011;52340;-6.720;108.544;2023-08-08T03:35:22;31.52;;;22.10;;
65641;SDS011;52340;-6.720;108.544;2023-08-08T03:36:24;37.15;;;22.98;;
65641;SDS011;52340;-6.720;108.544;2023-08-08T03:37:26;31.92;;;21.17;;
65641;SDS011;52340;-6.720;108.544;2023-08-08T03:38:27;33.58;;;21.65;;
65641;SDS011;52340;-6.720;108.544;2023-08-08T03:39:29;32.38;;;20.88;;
65641;SDS011;52340;-6.720;108.544;2023-08-08T03:40:31;31.77;;;21.90;;
65641;SDS011;52340;-6.720;108.544;2023-08-08T03:41:32;28.30;;;20.85;;
65641;SDS011;52340;-6.720;108.544;2023-08-08T03:42:34;31.92;;;21.85;;
65641;SDS011;52340;-6.720;108.544;2023-08-08T03:43:36;34.80;;;22.63;;
65641;SDS011;52340;-6.720;108.544;2023-08-08T03:44:39;30.52;;;21.30;;
65641;SDS011;52340;-6.720;108.544;2023-08-08T03:45:41;33.88;;;21.65;;
65641;SDS011;52340;-6.720;108.544;2023-08-08T03:46:43;33.58;;;21.63;;
65641;SDS011;52340;-6.720;108.544;2023-08-08T03:47:44;32.25;;;21.25;;
65641;SDS011;52340;-6.720;108.544;2023-08-08T03:48:46;35.17;;;21.85;;
65641;SDS011;52340;-6.720;108.544;2023-08-08T03:49:47;35.58;;;21.63;;
65641;SDS011;52340;-6.720;108.544;2023-08-08T03:50:49;33.80;;;21.20;;
65641;SDS011;52340;-6.720;108.544;2023-08-08T03:51:51;34.00;;;21.42;;
65641;SDS011;52340;-6.720;108.544;2023-08-08T03:52:52;30.63;;;20.75;;
65641;SDS011;52340;-6.720;108.544;2023-08-08T03:53:54;35.10;;;21.02;;
65641;SDS011;52340;-6.720;108.544;2023-08-08T03:54:56;32.90;;;23.33;;
65641;SDS011;52340;-6.720;108.544;2023-08-08T03:55:57;35.08;;;21.33;;
65641;SDS011;52340;-6.720;108.544;2023-08-08T03:56:59;35.25;;;22.92;;
65641;SDS011;52340;-6.720;108.544;2023-08-08T03:58:04;32.75;;;21.50;;
65641;SDS011;52340;-6.720;108.544;2023-08-08T03:59:05;35.65;;;21.90;;
65641;SDS011;52340;-6.720;108.544;2023-08-08T04:00:09;36.28;;;23.00;;
65641;SDS011;52340;-6.720;108.544;2023-08-08T04:01:11;36.33;;;23.33;;
65641;SDS011;52340;-6.720;108.544;2023-08-08T04:02:15;35.15;;;23.42;;
65641;SDS011;52340;-6.720;108.544;2023-08-08T04:03:18;32.30;;;22.48;;
65641;SDS011;52340;-6.720;108.544;2023-08-08T04:04:24;35.63;;;23.40;;
65641;SDS011;52340;-6.720;108.544;2023-08-08T04:05:26;34.70;;;24.08;;
65641;SDS011;52340;-6.720;108.544;2023-08-08T04:06:27;31.67;;;21.55;;
65641;SDS011;52340;-6.720;108.544;2023-08-08T04:07:29;31.95;;;21.63;;
65641;SDS011;52340;-6.720;108.544;2023-08-08T04:08:31;31.73;;;22.75;;
65641;SDS011;52340;-6.720;108.544;2023-08-08T04:09:33;34.92;;;22.33;;
65641;SDS011;52340;-6.720;108.544;2023-08-08T04:10:34;37.20;;;22.20;;
65641;SDS011;52340;-6.720;108.544;2023-08-08T04:11:36;39.10;;;22.33;;
65641;SDS011;52340;-6.720;108.544;2023-08-08T04:12:38;36.50;;;21.90;;
65641;SDS011;52340;-6.720;108.544;2023-08-08T04:13:39;36.08;;;22.77;;
65641;SDS011;52340;-6.720;108.544;2023-08-08T04:14:41;35.90;;;22.33;;
65641;SDS011;52340;-6.720;108.544;2023-08-08T04:15:44;32.90;;;21.77;;
65641;SDS011;52340;-6.720;108.544;2023-08-08T04:16:46;34.35;;;22.73;;
65641;SDS011;52340;-6.720;108.544;2023-08-08T04:17:48;35.95;;;22.20;;
65641;SDS011;52340;-6.720;108.544;2023-08-08T04:18:49;35.70;;;22.42;;
65641;SDS011;52340;-6.720;108.544;2023-08-08T04:19:51;32.25;;;22.30;;
65641;SDS011;52340;-6.720;108.544;2023-08-08T04:20:53;31.80;;;22.17;;
65641;SDS011;52340;-6.720;108.544;2023-08-08T04:21:55;33.65;;;21.80;;
65641;SDS011;52340;-6.720;108.544;2023-08-08T04:22:56;33.42;;;22.35;;
65641;SDS011;52340;-6.720;108.544;2023-08-08T04:23:58;34.60;;;23.13;;
65641;SDS011;52340;-6.720;108.544;2023-08-08T04:25:00;33.33;;;22.25;;
65641;SDS011;52340;-6.720;108.544;2023-08-08T04:26:04;37.80;;;22.52;;
65641;SDS011;52340;-6.720;108.544;2023-08-08T04:27:08;31.35;;;21.85;;
65641;SDS011;52340;-6.720;108.544;2023-08-08T04:28:10;34.10;;;22.75;;
65641;SDS011;52340;-6.720;108.544;2023-08-08T04:29:12;33.78;;;22.98;;
65641;SDS011;52340;-6.720;108.544;2023-08-08T04:30:13;31.70;;;22.73;;
65641;SDS011;52340;-6.720;108.544;2023-08-08T04:31:18;33.97;;;22.25;;
65641;SDS011;52340;-6.720;108.544;2023-08-08T04:32:19;32.70;;;21.92;;
65641;SDS011;52340;-6.720;108.544;2023-08-08T04:33:21;34.95;;;22.45;;
65641;SDS011;52340;-6.720;108.544;2023-08-08T04:34:23;31.95;;;23.08;;
65641;SDS011;52340;-6.720;108.544;2023-08-08T04:35:24;32.83;;;22.88;;
65641;SDS011;52340;-6.720;108.544;2023-08-08T04:36:29;34.15;;;23.27;;
65641;SDS011;52340;-6.720;108.544;2023-08-08T04:37:31;31.67;;;21.52;;
65641;SDS011;52340;-6.720;108.544;2023-08-08T04:38:32;34.42;;;22.90;;
65641;SDS011;52340;-6.720;108.544;2023-08-08T04:39:34;31.40;;;21.70;;
65641;SDS011;52340;-6.720;108.544;2023-08-08T04:40:37;35.78;;;21.77;;
65641;SDS011;52340;-6.720;108.544;2023-08-08T04:41:39;32.55;;;22.60;;
65641;SDS011;52340;-6.720;108.544;2023-08-08T04:42:42;34.47;;;22.83;;
65641;SDS011;52340;-6.720;108.544;2023-08-08T04:43:44;32.67;;;22.35;;
65641;SDS011;52340;-6.720;108.544;2023-08-08T04:44:46;35.55;;;22.17;;
65641;SDS011;52340;-6.720;108.544;2023-08-08T04:45:48;34.03;;;23.05;;
65641;SDS011;52340;-6.720;108.544;2023-08-08T04:46:51;32.00;;;21.73;;
65641;SDS011;52340;-6.720;108.544;2023-08-08T04:47:53;31.60;;;22.05;;
65641;SDS011;52340;-6.720;108.544;2023-08-08T04:48:55;31.25;;;21.70;;
65641;SDS011;52340;-6.720;108.544;2023-08-08T04:49:59;34.90;;;22.67;;
65641;SDS011;52340;-6.720;108.544;2023-08-08T04:51:01;40.38;;;22.00;;
65641;SDS011;52340;-6.720;108.544;2023-08-08T04:52:02;35.95;;;22.15;;
65641;SDS011;52340;-6.720;108.544;2023-08-08T04:53:05;33.10;;;22.00;;
65641;SDS011;52340;-6.720;108.544;2023-08-08T04:54:06;35.70;;;22.00;;
65641;SDS011;52340;-6.720;108.544;2023-08-08T04:55:08;33.13;;;22.13;;
65641;SDS011;52340;-6.720;108.544;2023-08-08T04:56:10;32.53;;;21.52;;
65641;SDS011;52340;-6.720;108.544;2023-08-08T04:57:14;33.95;;;22.27;;
65641;SDS011;52340;-6.720;108.544;2023-08-08T04:58:18;32.38;;;22.15;;
65641;SDS011;52340;-6.720;108.544;2023-08-08T04:59:20;36.25;;;22.15;;
65641;SDS011;52340;-6.720;108.544;2023-08-08T05:00:22;33.53;;;22.98;;
65641;SDS011;52340;-6.720;108.544;2023-08-08T05:01:23;34.45;;;22.58;;
65641;SDS011;52340;-6.720;108.544;2023-08-08T05:02:27;33.53;;;22.58;;
65641;SDS011;52340;-6.720;108.544;2023-08-08T05:03:28;34.83;;;22.17;;
65641;SDS011;52340;-6.720;108.544;2023-08-08T05:04:30;36.88;;;22.05;;
65641;SDS011;52340;-6.720;108.544;2023-08-08T05:05:32;32.60;;;22.38;;
65641;SDS011;52340;-6.720;108.544;2023-08-08T05:06:34;33.40;;;22.27;;
65641;SDS011;52340;-6.720;108.544;2023-08-08T05:07:35;33.58;;;21.90;;
65641;SDS011;52340;-6.720;108.544;2023-08-08T05:08:37;34.65;;;22.48;;
65641;SDS011;52340;-6.720;108.544;2023-08-08T05:09:39;38.42;;;22.48;;
65641;SDS011;52340;-6.720;108.544;2023-08-08T05:10:41;35.75;;;22.48;;
65641;SDS011;52340;-6.720;108.544;2023-08-08T05:11:42;38.50;;;22.50;;
65641;SDS011;52340;-6.720;108.544;2023-08-08T05:12:44;33.90;;;22.95;;
65641;SDS011;52340;-6.720;108.544;2023-08-08T05:13:46;34.95;;;22.98;;
65641;SDS011;52340;-6.720;108.544;2023-08-08T05:14:48;38.45;;;23.52;;
65641;SDS011;52340;-6.720;108.544;2023-08-08T05:15:49;33.40;;;23.38;;
65641;SDS011;52340;-6.720;108.544;2023-08-08T05:16:51;33.83;;;22.92;;
65641;SDS011;52340;-6.720;108.544;2023-08-08T05:17:55;35.90;;;22.85;;
65641;SDS011;52340;-6.720;108.544;2023-08-08T05:18:57;38.58;;;23.65;;
65641;SDS011;52340;-6.720;108.544;2023-08-08T05:19:59;34.30;;;23.08;;
65641;SDS011;52340;-6.720;108.544;2023-08-08T05:21:07;33.20;;;22.75;;
65641;SDS011;52340;-6.720;108.544;2023-08-08T05:22:08;33.83;;;23.52;;
65641;SDS011;52340;-6.720;108.544;2023-08-08T05:23:10;41.95;;;23.58;;
65641;SDS011;52340;-6.720;108.544;2023-08-08T05:24:12;33.83;;;23.02;;
65641;SDS011;52340;-6.720;108.544;2023-08-08T05:25:14;40.83;;;23.83;;
65641;SDS011;52340;-6.720;108.544;2023-08-08T05:26:15;34.58;;;23.88;;
65641;SDS011;52340;-6.720;108.544;2023-08-08T05:27:17;35.95;;;23.38;;
65641;SDS011;52340;-6.720;108.544;2023-08-08T05:28:19;39.47;;;24.40;;
65641;SDS011;52340;-6.720;108.544;2023-08-08T05:29:21;35.47;;;24.92;;
65641;SDS011;52340;-6.720;108.544;2023-08-08T05:30:25;36.65;;;25.00;;
65641;SDS011;52340;-6.720;108.544;2023-08-08T05:31:26;37.10;;;24.38;;
65641;SDS011;52340;-6.720;108.544;2023-08-08T05:32:28;40.75;;;24.80;;
65641;SDS011;52340;-6.720;108.544;2023-08-08T05:33:32;36.30;;;23.55;;
65641;SDS011;52340;-6.720;108.544;2023-08-08T05:34:34;37.13;;;24.15;;
65641;SDS011;52340;-6.720;108.544;2023-08-08T05:35:35;34.72;;;24.33;;
65641;SDS011;52340;-6.720;108.544;2023-08-08T05:36:37;38.40;;;24.05;;
65641;SDS011;52340;-6.720;108.544;2023-08-08T05:37:39;32.25;;;23.13;;
65641;SDS011;52340;-6.720;108.544;2023-08-08T05:38:43;34.38;;;24.17;;
65641;SDS011;52340;-6.720;108.544;2023-08-08T05:39:45;36.28;;;23.15;;
65641;SDS011;52340;-6.720;108.544;2023-08-08T05:40:47;38.33;;;23.95;;
65641;SDS011;52340;-6.720;108.544;2023-08-08T05:41:48;36.17;;;23.95;;
65641;SDS011;52340;-6.720;108.544;2023-08-08T05:42:50;32.83;;;22.08;;
65641;SDS011;52340;-6.720;108.544;2023-08-08T05:43:52;34.88;;;23.10;;
65641;SDS011;52340;-6.720;108.544;2023-08-08T05:44:54;36.00;;;21.85;;
65641;SDS011;52340;-6.720;108.544;2023-08-08T05:45:55;36.28;;;22.23;;
65641;SDS011;52340;-6.720;108.544;2023-08-08T05:46:57;35.15;;;21.92;;
65641;SDS011;52340;-6.720;108.544;2023-08-08T05:47:59;37.00;;;23.33;;
65641;SDS011;52340;-6.720;108.544;2023-08-08T05:49:03;35.20;;;22.45;;
65641;SDS011;52340;-6.720;108.544;2023-08-08T05:50:05;35.58;;;21.50;;
65641;SDS011;52340;-6.720;108.544;2023-08-08T05:51:07;31.60;;;21.52;;
65641;SDS011;52340;-6.720;108.544;2023-08-08T05:52:09;32.95;;;22.23;;
65641;SDS011;52340;-6.720;108.544;2023-08-08T05:53:11;34.33;;;22.13;;
65641;SDS011;52340;-6.720;108.544;2023-08-08T05:54:12;36.30;;;21.88;;